Time;durP1;ratioP1;P1;durP2;ratioP2;P2;SDS_P1;SDS_P2;PMS_P1;PMS_P2;Temp;Humidity;BMP_temperature;BMP_pressure;BME280_temperature;BME280_humidity;BME280_pressure;Samples;Min_cycle;Max_cycle;Signal;HPM_P1;HPM_P2
2023/02/28 00:01:23;;;;;;;;;;;;;;;12.52;44.21;101914.17;1939299;74;20376;-52
2023/02/28 00:03:51;;;;;;;;;;;;;;;12.51;44.36;101907.60;1944062;74;20217;-51
2023/02/28 00:06:20;;;;;;;;;;;;;;;12.48;44.42;101905.89;1940674;74;20353;-51
2023/02/28 00:08:48;;;;;;;;;;;;;;;12.48;44.58;101911.17;1942997;74;20422;-51
2023/02/28 00:11:16;;;;;;;;;;;;;;;12.48;44.47;101912.96;1943718;74;20192;-52
2023/02/28 00:13:48;;;;;;;;;;;;;;;12.45;44.64;101915.25;1943682;74;20187;-53
2023/02/28 00:16:17;;;;;;;;;;;;;;;12.44;44.46;101915.28;1942522;74;20147;-52
2023/02/28 00:18:47;;;;;;;;;;;;;;;12.35;44.38;101911.97;1944677;74;20230;-52
2023/02/28 00:21:15;;;;;;;;;;;;;;;12.29;44.34;101915.26;1943236;74;20240;-51
2023/02/28 00:23:43;;;;;;;;;;;;;;;12.24;44.40;101907.91;1943509;74;20143;-53
2023/02/28 00:26:11;;;;;;;;;;;;;;;12.20;44.40;101906.27;1941610;73;20147;-52
2023/02/28 00:28:39;;;;;;;;;;;;;;;12.18;44.50;101901.02;1942756;74;20160;-54
2023/02/28 00:31:07;;;;;;;;;;;;;;;12.15;44.51;101905.05;1941549;74;20219;-53
2023/02/28 00:33:36;;;;;;;;;;;;;;;12.12;44.44;101908.66;1943733;74;20391;-53
2023/02/28 00:36:05;;;;;;;;;;;;;;;12.09;44.40;101899.95;1942375;74;20140;-53
2023/02/28 00:38:33;;;;;;;;;;;;;;;12.05;44.41;101899.62;1939708;74;20149;-49
2023/02/28 00:41:06;;;;;;;;;;;;;;;12.04;44.56;101901.84;1942482;74;20223;-47
2023/02/28 00:43:32;;;;;;;;;;;;;;;12.02;44.57;101894.42;1942159;74;20187;-49
2023/02/28 00:45:59;;;;;;;;;;;;;;;12.03;44.71;101895.70;1942430;74;20235;-46
2023/02/28 00:48:27;;;;;;;;;;;;;;;12.04;44.80;101893.92;1941724;74;20154;-48
2023/02/28 00:50:55;;;;;;;;;;;;;;;12.02;44.75;101895.73;1942663;74;20142;-47
2023/02/28 00:53:23;;;;;;;;;;;;;;;11.98;44.67;101895.81;1942387;74;20116;-49
2023/02/28 00:55:51;;;;;;;;;;;;;;;11.96;44.63;101899.41;1938210;74;20375;-49
2023/02/28 00:58:19;;;;;;;;;;;;;;;11.91;44.60;101902.16;1943314;73;20146;-49
2023/02/28 01:00:52;;;;;;;;;;;;;;;11.87;44.61;101903.11;1949063;74;20126;-50
2023/02/28 01:03:17;;;;;;;;;;;;;;;11.85;44.64;101902.75;1942744;74;20449;-53
2023/02/28 01:05:45;;;;;;;;;;;;;;;11.81;44.72;101899.32;1944168;74;20359;-53
2023/02/28 01:08:13;;;;;;;;;;;;;;;11.78;44.74;101897.64;1943948;74;20143;-54
2023/02/28 01:10:41;;;;;;;;;;;;;;;11.75;44.78;101897.71;1943918;74;20146;-52
2023/02/28 01:13:09;;;;;;;;;;;;;;;11.74;44.74;101892.47;1949101;74;20164;-52
2023/02/28 01:15:37;;;;;;;;;;;;;;;11.73;44.76;101898.63;1950828;74;20112;-53
2023/02/28 01:18:05;;;;;;;;;;;;;;;11.72;44.75;101902.20;1942031;73;20138;-53
2023/02/28 01:20:33;;;;;;;;;;;;;;;11.72;44.95;101908.80;1928887;74;20154;-53
2023/02/28 01:23:02;;;;;;;;;;;;;;;11.69;44.85;101897.87;1948615;73;20101;-53
2023/02/28 01:25:29;;;;;;;;;;;;;;;11.71;44.83;101908.36;1952670;72;20121;-47
2023/02/28 01:27:57;;;;;;;;;;;;;;;11.69;44.88;101907.54;1963196;72;20210;-50
2023/02/28 01:30:27;;;;;;;;;;;;;;;11.68;44.99;101913.73;1963330;73;20163;-49
2023/02/28 01:32:54;;;;;;;;;;;;;;;11.69;44.94;101915.45;1964787;73;20115;-48
2023/02/28 01:35:22;;;;;;;;;;;;;;;11.69;44.93;101907.11;1963463;73;20112;-50
2023/02/28 01:37:50;;;;;;;;;;;;;;;11.72;45.15;101909.66;1965652;73;20112;-47
2023/02/28 01:40:18;;;;;;;;;;;;;;;11.75;45.38;101908.27;1955468;73;20153;-47
2023/02/28 01:42:46;;;;;;;;;;;;;;;11.79;45.43;101901.14;1963038;73;20147;-48
2023/02/28 01:45:28;;;;;;;;;;;;;;;11.84;45.68;101907.17;1963436;73;20409;-52
2023/02/28 01:48:03;;;;;;;;;;;;;;;11.85;45.47;101903.61;1965532;72;20108;-49
2023/02/28 01:50:32;;;;;;;;;;;;;;;11.84;45.45;101895.30;1942592;73;20138;-52
2023/02/28 01:53:01;;;;;;;;;;;;;;;11.85;45.50;101906.71;1964682;73;20104;-49
2023/02/28 01:55:31;;;;;;;;;;;;;;;11.85;45.48;101910.67;1965446;73;20111;-47
2023/02/28 01:58:00;;;;;;;;;;;;;;;11.85;45.51;101902.75;1963919;73;20214;-50
2023/02/28 02:00:29;;;;;;;;;;;;;;;11.87;45.74;101907.07;1964909;73;20112;-50
2023/02/28 02:02:59;;;;;;;;;;;;;;;11.90;45.73;101902.22;1958085;72;20108;-53
2023/02/28 02:05:28;;;;;;;;;;;;;;;11.91;45.64;101903.94;1965398;73;20166;-54
2023/02/28 02:07:57;;;;;;;;;;;;;;;11.92;45.59;101907.86;1965174;73;20402;-54
2023/02/28 02:10:38;;;;;;;;;;;;;;;11.92;45.62;101905.69;1963462;73;20362;-54
2023/02/28 02:13:08;;;;;;;;;;;;;;;11.90;45.44;101903.08;1920749;73;20195;-48
2023/02/28 02:15:37;;;;;;;;;;;;;;;11.87;45.50;101907.07;1933720;73;20165;-47
2023/02/28 02:18:07;;;;;;;;;;;;;;;11.82;45.35;101910.28;1964834;73;20430;-51
2023/02/28 02:20:40;;;;;;;;;;;;;;;11.77;45.32;101917.00;1960349;73;20100;-55
2023/02/28 02:23:26;;;;;;;;;;;;;;;11.73;45.32;101920.63;1963447;73;20112;-55
2023/02/28 02:25:59;;;;;;;;;;;;;;;11.71;45.34;101930.80;1962338;73;20132;-52
2023/02/28 02:28:46;;;;;;;;;;;;;;;11.64;45.38;101919.97;1951006;73;20171;-49
2023/02/28 02:31:18;;;;;;;;;;;;;;;11.62;45.42;101927.06;1950632;73;20254;-50
2023/02/28 02:33:48;;;;;;;;;;;;;;;11.61;45.43;101924.03;1951446;72;20225;-49
2023/02/28 02:36:20;;;;;;;;;;;;;;;11.59;45.42;101928.87;1945546;73;20116;-49
2023/02/28 02:38:58;;;;;;;;;;;;;;;11.57;45.41;101925.41;1951732;73;20151;-50
2023/02/28 02:41:30;;;;;;;;;;;;;;;11.55;45.43;101929.86;1951631;73;20234;-49
2023/02/28 02:44:17;;;;;;;;;;;;;;;11.54;45.46;101925.47;1948839;73;20112;-51
2023/02/28 02:46:45;;;;;;;;;;;;;;;11.53;45.47;101923.76;1951498;73;20116;-48
2023/02/28 02:49:18;;;;;;;;;;;;;;;11.52;45.72;101917.20;1951594;72;20147;-50
2023/02/28 02:51:47;;;;;;;;;;;;;;;11.54;45.87;101925.47;1951032;73;20234;-49
2023/02/28 02:54:16;;;;;;;;;;;;;;;11.55;45.95;101925.05;1951680;73;20112;-46
2023/02/28 02:56:45;;;;;;;;;;;;;;;11.53;45.95;101919.80;1952284;72;20222;-47
2023/02/28 02:59:13;;;;;;;;;;;;;;;11.52;46.13;101922.01;1952835;73;20214;-50
2023/02/28 03:01:42;;;;;;;;;;;;;;;11.51;46.03;101916.34;1951888;72;20202;-48
2023/02/28 03:04:11;;;;;;;;;;;;;;;11.50;45.99;101910.63;1954638;73;20108;-48
2023/02/28 03:06:39;;;;;;;;;;;;;;;11.50;45.96;101917.23;1952298;73;20100;-51
2023/02/28 03:09:07;;;;;;;;;;;;;;;11.50;45.96;101914.59;1955609;73;20151;-51
2023/02/28 03:11:36;;;;;;;;;;;;;;;11.52;45.92;101914.09;1958370;73;20116;-53
2023/02/28 03:14:21;;;;;;;;;;;;;;;11.52;45.86;101911.92;1958472;72;20386;-54
2023/02/28 03:16:51;;;;;;;;;;;;;;;11.51;45.86;101914.13;1953496;73;20147;-50
2023/02/28 03:19:29;;;;;;;;;;;;;;;11.49;45.88;101906.28;1959004;73;20108;-50
2023/02/28 03:22:10;;;;;;;;;;;;;;;11.48;45.86;101913.77;1954915;73;20163;-49
2023/02/28 03:24:54;;;;;;;;;;;;;;;11.48;45.99;101909.80;1950474;73;20100;-49
2023/02/28 03:27:24;;;;;;;;;;;;;;;11.47;45.96;101912.05;1880773;76;20137;-49
2023/02/28 03:29:53;;;;;;;;;;;;;;;11.44;45.87;101909.94;1930221;73;20371;-48
2023/02/28 03:32:25;;;;;;;;;;;;;;;11.39;45.83;101904.75;1952821;72;20113;-50
2023/02/28 03:35:04;;;;;;;;;;;;;;;11.34;45.79;101902.67;1958860;73;20540;-49
2023/02/28 03:37:34;;;;;;;;;;;;;;;11.33;45.94;101902.27;1959076;73;20146;-48
2023/02/28 03:40:04;;;;;;;;;;;;;;;11.32;45.96;101897.89;1953174;73;20140;-47
2023/02/28 03:42:33;;;;;;;;;;;;;;;11.33;46.05;101894.36;1950835;73;20144;-49
2023/02/28 03:45:02;;;;;;;;;;;;;;;11.32;46.01;101899.20;1951234;73;20151;-49
2023/02/28 03:47:31;;;;;;;;;;;;;;;11.33;46.07;101897.00;1955457;73;20116;-49
2023/02/28 03:50:04;;;;;;;;;;;;;;;11.33;46.18;101906.23;1957250;73;20112;-46
2023/02/28 03:52:33;;;;;;;;;;;;;;;11.31;46.19;101896.17;1951961;72;20143;-47
2023/02/28 03:55:06;;;;;;;;;;;;;;;11.31;46.24;101905.40;1927685;73;20107;-47
2023/02/28 03:57:39;;;;;;;;;;;;;;;11.28;46.30;101896.23;1950116;73;20155;-49
2023/02/28 04:00:08;;;;;;;;;;;;;;;11.25;46.15;101897.19;1951121;73;20160;-48
2023/02/28 04:02:39;;;;;;;;;;;;;;;11.22;46.36;101903.83;1952082;73;20148;-48
2023/02/28 04:05:07;;;;;;;;;;;;;;;11.24;46.46;101911.25;1926357;73;20196;-49
2023/02/28 04:07:35;;;;;;;;;;;;;;;11.25;46.44;101912.11;1921522;75;20157;-48
2023/02/28 04:10:04;;;;;;;;;;;;;;;11.25;46.54;101917.38;1944325;73;20101;-46
2023/02/28 04:12:32;;;;;;;;;;;;;;;11.26;46.55;101921.77;1955242;73;20398;-46
2023/02/28 04:15:01;;;;;;;;;;;;;;;11.24;46.56;101923.58;1955126;73;20143;-50
2023/02/28 04:17:28;;;;;;;;;;;;;;;11.22;46.49;101930.66;1953888;73;20120;-47
2023/02/28 04:19:57;;;;;;;;;;;;;;;11.17;46.54;101927.66;1959269;73;20151;-54
2023/02/28 04:22:27;;;;;;;;;;;;;;;11.14;46.55;101932.13;1959161;73;20112;-54
2023/02/28 04:24:55;;;;;;;;;;;;;;;11.11;46.66;101931.75;1958470;73;20238;-48
2023/02/28 04:27:23;;;;;;;;;;;;;;;11.08;46.80;101934.45;1962514;73;20162;-51
2023/02/28 04:29:51;;;;;;;;;;;;;;;11.07;46.69;101939.78;1949059;73;20146;-48
2023/02/28 04:32:18;;;;;;;;;;;;;;;11.07;46.63;101936.69;1945280;74;20124;-48
2023/02/28 04:34:46;;;;;;;;;;;;;;;11.08;46.70;101940.17;1945028;74;20108;-49
2023/02/28 04:37:14;;;;;;;;;;;;;;;11.06;46.59;101941.52;1920093;74;20119;-50
2023/02/28 04:39:42;;;;;;;;;;;;;;;11.08;46.62;101949.41;1939898;73;20112;-49
2023/02/28 04:42:10;;;;;;;;;;;;;;;11.09;46.56;101952.01;1917595;75;20148;-49
2023/02/28 04:44:38;;;;;;;;;;;;;;;11.12;46.44;101953.27;1936126;74;20146;-49
2023/02/28 04:47:06;;;;;;;;;;;;;;;11.14;46.43;101958.06;1945004;73;20117;-49
2023/02/28 04:49:33;;;;;;;;;;;;;;;11.18;46.71;101968.08;1943991;74;20109;-49
2023/02/28 04:52:01;;;;;;;;;;;;;;;11.18;46.39;101953.13;1943948;74;20110;-51
2023/02/28 04:54:29;;;;;;;;;;;;;;;11.23;46.29;101956.10;1943626;74;20154;-49
2023/02/28 04:56:57;;;;;;;;;;;;;;;11.30;46.20;101957.70;1941254;74;20160;-50
2023/02/28 04:59:25;;;;;;;;;;;;;;;11.34;46.14;101968.59;1943686;74;20113;-49
2023/02/28 05:01:52;;;;;;;;;;;;;;;11.39;46.09;101977.27;1943694;74;20147;-48
2023/02/28 05:04:20;;;;;;;;;;;;;;;11.46;46.01;101980.19;1943812;74;20142;-50
2023/02/28 05:06:48;;;;;;;;;;;;;;;11.53;45.91;101983.11;1945370;74;20382;-49
2023/02/28 05:09:16;;;;;;;;;;;;;;;11.61;45.92;101980.74;1948722;74;20140;-49
2023/02/28 05:11:43;;;;;;;;;;;;;;;11.70;45.87;101976.11;1942611;73;20105;-48
2023/02/28 05:14:12;;;;;;;;;;;;;;;11.79;45.84;101972.39;1937507;74;20101;-48
2023/02/28 05:16:40;;;;;;;;;;;;;;;11.90;45.73;101974.34;1941792;73;20147;-48
2023/02/28 05:19:08;;;;;;;;;;;;;;;12.07;45.59;101980.97;1939857;74;20144;-48
2023/02/28 05:21:37;;;;;;;;;;;;;;;12.18;45.53;101974.95;1940887;73;20164;-48
2023/02/28 05:24:06;;;;;;;;;;;;;;;12.26;45.34;101977.39;1943748;74;20386;-48
2023/02/28 05:26:38;;;;;;;;;;;;;;;12.30;45.30;101978.61;1943774;74;20382;-49
2023/02/28 05:29:06;;;;;;;;;;;;;;;12.36;45.28;101992.09;1950765;72;20382;-48
2023/02/28 05:31:34;;;;;;;;;;;;;;;12.42;45.19;101995.89;1952891;73;20516;-49
2023/02/28 05:34:04;;;;;;;;;;;;;;;12.50;45.09;101997.86;1957584;73;20116;-58
2023/02/28 05:36:31;;;;;;;;;;;;;;;12.57;44.91;101993.28;1958893;73;20127;-58
2023/02/28 05:38:59;;;;;;;;;;;;;;;12.67;44.39;101991.24;1958686;73;20120;-49
2023/02/28 05:41:27;;;;;;;;;;;;;;;12.84;44.39;101992.12;1923425;73;20200;-50
2023/02/28 05:43:55;;;;;;;;;;;;;;;13.07;44.04;101998.05;1957477;73;20111;-49
2023/02/28 05:46:23;;;;;;;;;;;;;;;13.31;43.46;102009.23;1955176;73;20112;-49
2023/02/28 05:48:50;;;;;;;;;;;;;;;13.50;43.08;102006.02;1949852;73;20100;-48
2023/02/28 05:51:18;;;;;;;;;;;;;;;13.60;42.78;102005.30;1951161;73;20120;-48
2023/02/28 05:53:48;;;;;;;;;;;;;;;13.71;42.59;102000.53;1957505;72;20139;-48
2023/02/28 05:56:15;;;;;;;;;;;;;;;13.76;42.41;102005.23;1948393;73;20126;-49
2023/02/28 05:58:44;;;;;;;;;;;;;;;13.75;42.09;101999.51;1936080;73;20112;-48
2023/02/28 06:01:25;;;;;;;;;;;;;;;13.71;41.99;101997.88;1956213;72;20116;-52
2023/02/28 06:03:53;;;;;;;;;;;;;;;13.68;41.86;101993.56;1962341;72;20109;-57
2023/02/28 06:06:21;;;;;;;;;;;;;;;13.64;42.06;102001.64;1956236;72;20146;-56
2023/02/28 06:08:49;;;;;;;;;;;;;;;13.65;41.95;102000.73;1956311;73;20367;-56
2023/02/28 06:11:17;;;;;;;;;;;;;;;13.70;42.08;102002.33;1959149;73;20162;-48
2023/02/28 06:13:45;;;;;;;;;;;;;;;13.83;42.18;102006.77;1959144;73;20116;-49
2023/02/28 06:16:12;;;;;;;;;;;;;;;14.00;42.21;102003.55;1959121;73;20143;-50
2023/02/28 06:18:40;;;;;;;;;;;;;;;14.09;42.13;102000.60;1955126;73;20116;-55
2023/02/28 06:21:08;;;;;;;;;;;;;;;14.35;42.09;102007.23;1950549;74;20159;-55
2023/02/28 06:23:36;;;;;;;;;;;;;;;14.42;42.03;102018.02;1950463;74;20096;-54
2023/02/28 06:26:04;;;;;;;;;;;;;;;14.46;42.09;102015.70;1950543;73;20146;-53
2023/02/28 06:28:32;;;;;;;;;;;;;;;14.51;42.07;102026.13;1950283;71;20197;-48
2023/02/28 06:31:00;;;;;;;;;;;;;;;14.56;42.12;102017.56;1947145;73;20100;-57
2023/02/28 06:33:27;;;;;;;;;;;;;;;14.64;42.17;102016.41;1947891;74;20459;-49
2023/02/28 06:35:55;;;;;;;;;;;;;;;14.70;42.17;102021.06;1950308;73;20144;-45
2023/02/28 06:38:23;;;;;;;;;;;;;;;14.76;42.18;102028.81;1950431;73;20112;-48
2023/02/28 06:40:57;;;;;;;;;;;;;;;14.91;42.16;102030.89;1950518;74;20117;-49
2023/02/28 06:43:27;;;;;;;;;;;;;;;15.04;42.09;102026.86;1951902;73;20100;-48
2023/02/28 06:45:55;;;;;;;;;;;;;;;15.12;42.01;102031.02;1964921;73;20108;-49
2023/02/28 06:48:23;;;;;;;;;;;;;;;15.13;41.99;102029.64;1950959;73;20116;-48
2023/02/28 06:50:51;;;;;;;;;;;;;;;15.14;42.02;102021.21;1950460;74;20199;-53
2023/02/28 06:53:19;;;;;;;;;;;;;;;15.15;42.05;102015.84;1950507;74;20147;-53
2023/02/28 06:55:47;;;;;;;;;;;;;;;15.13;42.05;102011.54;1963570;73;20189;-55
2023/02/28 06:58:15;;;;;;;;;;;;;;;15.12;42.12;102021.73;1964497;71;20095;-52
2023/02/28 07:00:43;;;;;;;;;;;;;;;15.09;42.23;102016.09;1959274;72;20116;-49
2023/02/28 07:03:12;;;;;;;;;;;;;;;15.11;42.29;102019.55;1959002;73;20150;-48
2023/02/28 07:05:40;;;;;;;;;;;;;;;15.06;42.30;102025.02;1954121;73;20108;-47
2023/02/28 07:08:08;;;;;;;;;;;;;;;15.02;42.40;102034.02;1955111;73;20236;-51
2023/02/28 07:10:37;;;;;;;;;;;;;;;15.04;42.44;102033.48;1955370;73;20382;-48
2023/02/28 07:13:05;;;;;;;;;;;;;;;15.15;42.45;102033.56;1955142;73;20096;-49
2023/02/28 07:15:33;;;;;;;;;;;;;;;15.32;42.38;102033.77;1956109;73;20116;-46
2023/02/28 07:18:01;;;;;;;;;;;;;;;15.36;42.35;102034.09;1958983;73;20147;-47
2023/02/28 07:20:29;;;;;;;;;;;;;;;15.41;42.32;102028.11;1959033;73;20150;-46
2023/02/28 07:22:56;;;;;;;;;;;;;;;15.46;42.31;102029.75;1953670;73;20113;-48
2023/02/28 07:25:25;;;;;;;;;;;;;;;15.50;42.25;102030.02;1950612;73;20116;-48
2023/02/28 07:27:53;;;;;;;;;;;;;;;15.43;42.48;102036.87;1951701;73;20112;-50
2023/02/28 07:30:21;;;;;;;;;;;;;;;15.31;43.51;102048.42;1945724;73;20117;-47
2023/02/28 07:32:49;;;;;;;;;;;;;;;15.24;44.46;102055.77;1943815;74;20152;-51
2023/02/28 07:35:16;;;;;;;;;;;;;;;15.10;44.59;102052.77;1943742;74;20147;-51
2023/02/28 07:37:44;;;;;;;;;;;;;;;15.18;44.48;102044.92;1943687;74;20100;-50
2023/02/28 07:40:12;;;;;;;;;;;;;;;15.14;44.58;102045.09;1944593;74;20117;-48
2023/02/28 07:42:41;;;;;;;;;;;;;;;14.96;45.47;102051.95;1945311;73;20112;-46
2023/02/28 07:45:11;;;;;;;;;;;;;;;14.93;45.78;102052.92;1925409;73;20226;-54
2023/02/28 07:47:39;;;;;;;;;;;;;;;15.68;45.18;102046.55;1943814;74;20411;-49
2023/02/28 07:50:08;;;;;;;;;;;;;;;15.80;45.78;102047.41;1943673;74;20108;-48
2023/02/28 07:52:37;;;;;;;;;;;;;;;15.71;45.22;102038.44;1941887;74;20375;-55
2023/02/28 07:55:06;;;;;;;;;;;;;;;15.83;44.89;102037.14;1946614;73;20405;-54
2023/02/28 07:57:34;;;;;;;;;;;;;;;15.72;45.11;102048.16;1951180;73;20407;-46
2023/02/28 08:00:03;;;;;;;;;;;;;;;15.63;45.23;102045.86;1952662;73;20112;-49
2023/02/28 08:02:32;;;;;;;;;;;;;;;15.52;45.36;102056.05;1954457;73;20410;-49
2023/02/28 08:05:01;;;;;;;;;;;;;;;15.58;45.32;102057.12;1961174;73;20105;-51
2023/02/28 08:07:28;;;;;;;;;;;;;;;15.98;45.01;102053.77;1961135;73;20188;-48
2023/02/28 08:09:57;;;;;;;;;;;;;;;16.17;45.00;102057.84;1958585;73;20095;-48
2023/02/28 08:12:25;;;;;;;;;;;;;;;16.32;44.79;102064.34;1921669;75;20146;-53
2023/02/28 08:14:53;;;;;;;;;;;;;;;16.06;45.13;102070.72;1921713;75;20147;-50
2023/02/28 08:17:21;;;;;;;;;;;;;;;15.91;45.13;102071.35;1921630;75;20113;-45
2023/02/28 08:19:48;;;;;;;;;;;;;;;16.05;45.09;102062.84;1921826;75;20194;-48
2023/02/28 08:22:16;;;;;;;;;;;;;;;15.94;45.30;102057.48;1921630;74;20108;-47
2023/02/28 08:24:44;;;;;;;;;;;;;;;15.75;45.66;102055.16;1931900;73;20116;-50
2023/02/28 08:27:12;;;;;;;;;;;;;;;15.85;45.67;102063.17;1951154;74;20100;-48
2023/02/28 08:29:40;;;;;;;;;;;;;;;15.77;45.72;102064.81;1951882;73;20150;-47
2023/02/28 08:32:08;;;;;;;;;;;;;;;15.58;45.92;102074.37;1978464;72;20101;-48
2023/02/28 08:34:36;;;;;;;;;;;;;;;15.66;46.02;102072.30;1994690;72;20376;-48
2023/02/28 08:37:03;;;;;;;;;;;;;;;15.78;45.96;102073.16;1994603;72;20110;-47
2023/02/28 08:39:33;;;;;;;;;;;;;;;15.69;46.22;102082.78;1994667;72;20118;-47
2023/02/28 08:42:00;;;;;;;;;;;;;;;15.80;46.45;102068.65;1994665;72;20098;-47
2023/02/28 08:44:28;;;;;;;;;;;;;;;15.81;46.35;102080.16;1994685;72;20114;-48
2023/02/28 08:46:56;;;;;;;;;;;;;;;15.71;46.56;102083.59;1994729;72;20139;-47
2023/02/28 08:49:23;;;;;;;;;;;;;;;15.52;46.78;102075.95;1994657;72;20113;-48
2023/02/28 08:51:51;;;;;;;;;;;;;;;15.41;46.78;102078.54;1994778;72;20772;-48
2023/02/28 08:54:19;;;;;;;;;;;;;;;15.39;47.16;102075.08;1994699;72;20157;-48
2023/02/28 08:56:47;;;;;;;;;;;;;;;15.37;47.22;102074.28;1994717;72;20110;-49
2023/02/28 08:59:14;;;;;;;;;;;;;;;15.33;47.39;102074.00;1994673;72;20110;-50
2023/02/28 09:01:43;;;;;;;;;;;;;;;15.23;47.38;102071.27;1994824;72;20097;-49
2023/02/28 09:04:11;;;;;;;;;;;;;;;15.24;47.36;102077.00;1994618;72;20137;-49
2023/02/28 09:06:39;;;;;;;;;;;;;;;15.24;47.37;102080.98;1994717;72;20110;-48
2023/02/28 09:09:07;;;;;;;;;;;;;;;15.19;47.34;102075.83;1994662;72;20144;-47
2023/02/28 09:11:36;;;;;;;;;;;;;;;15.21;47.40;102078.42;1994677;72;20140;-47
2023/02/28 09:14:03;;;;;;;;;;;;;;;15.35;47.51;102072.15;1994789;72;20365;-50
2023/02/28 09:16:32;;;;;;;;;;;;;;;15.42;47.41;102071.00;1994642;72;20114;-48
2023/02/28 09:19:00;;;;;;;;;;;;;;;15.62;47.12;102074.66;1978059;72;20098;-47
2023/02/28 09:21:27;;;;;;;;;;;;;;;15.64;47.13;102078.14;1999722;72;20113;-50
2023/02/28 09:23:55;;;;;;;;;;;;;;;15.55;47.26;102077.17;1985918;72;20100;-48
2023/02/28 09:26:25;;;;;;;;;;;;;;;15.63;47.62;102085.69;1959128;73;20116;-47
2023/02/28 09:28:54;;;;;;;;;;;;;;;15.88;47.37;102071.46;1959338;73;20132;-48
2023/02/28 09:31:25;;;;;;;;;;;;;;;16.11;47.21;102076.72;1949061;72;20121;-47
2023/02/28 09:33:54;;;;;;;;;;;;;;;16.41;47.13;102072.38;1942687;74;20121;-47
2023/02/28 09:36:23;;;;;;;;;;;;;;;16.72;46.79;102069.73;1943276;74;20138;-47
2023/02/28 09:38:52;;;;;;;;;;;;;;;17.16;46.25;102064.25;1943944;74;20101;-47
2023/02/28 09:41:21;;;;;;;;;;;;;;;17.51;45.82;102059.95;1944097;74;20202;-49
2023/02/28 09:43:50;;;;;;;;;;;;;;;17.58;45.75;102057.87;1943872;74;20112;-48
2023/02/28 09:46:28;;;;;;;;;;;;;;;18.00;45.25;102058.09;1944016;74;20113;-49
2023/02/28 09:48:56;;;;;;;;;;;;;;;18.62;44.69;102053.64;1944080;74;20144;-48
2023/02/28 09:51:25;;;;;;;;;;;;;;;19.29;43.96;102052.73;1944195;74;20155;-50
2023/02/28 09:53:53;;;;;;;;;;;;;;;19.92;43.12;102052.38;1943750;74;20139;-48
2023/02/28 09:56:27;;;;;;;;;;;;;;;20.19;42.45;102050.36;1943902;74;20139;-47
2023/02/28 09:59:03;;;;;;;;;;;;;;;19.81;42.70;102043.63;1943888;73;20105;-49
2023/02/28 10:01:51;;;;;;;;;;;;;;;19.78;42.44;102045.61;1941259;74;20109;-47
2023/02/28 10:04:24;;;;;;;;;;;;;;;19.87;42.42;102045.09;1943964;74;20104;-48
2023/02/28 10:06:53;;;;;;;;;;;;;;;19.89;42.48;102034.31;1943841;74;20175;-48
2023/02/28 10:09:25;;;;;;;;;;;;;;;19.72;42.75;102035.25;1944146;74;20417;-48
2023/02/28 10:11:55;;;;;;;;;;;;;;;19.54;43.07;102043.34;1943937;74;20117;-47
2023/02/28 10:14:24;;;;;;;;;;;;;;;19.40;43.27;102038.80;1942702;74;20109;-49
2023/02/28 10:16:56;;;;;;;;;;;;;;;19.46;43.26;102040.26;1942652;74;20120;-47
2023/02/28 10:19:25;;;;;;;;;;;;;;;19.34;43.37;102039.11;1942522;74;20241;-48
2023/02/28 10:22:00;;;;;;;;;;;;;;;18.95;43.86;102034.16;1933645;74;20142;-47
2023/02/28 10:24:32;;;;;;;;;;;;;;;19.42;43.43;102034.67;1942683;74;20117;-47
2023/02/28 10:27:01;;;;;;;;;;;;;;;20.01;42.73;102025.11;1942756;74;20390;-48
2023/02/28 10:29:31;;;;;;;;;;;;;;;20.66;41.89;102021.73;1942564;74;20148;-49
2023/02/28 10:32:00;;;;;;;;;;;;;;;20.70;41.73;102019.27;1942710;73;20168;-47
2023/02/28 10:34:28;;;;;;;;;;;;;;;20.55;41.99;102016.54;1942832;74;20151;-48
2023/02/28 10:37:06;;;;;;;;;;;;;;;20.00;42.42;102012.67;1942760;74;20097;-48
2023/02/28 10:39:39;;;;;;;;;;;;;;;19.95;42.62;102013.41;1942480;74;20116;-51
2023/02/28 10:42:08;;;;;;;;;;;;;;;20.11;42.35;102007.19;1942541;74;20116;-49
2023/02/28 10:44:36;;;;;;;;;;;;;;;20.48;41.93;102004.97;1940567;74;20148;-47
2023/02/28 10:47:04;;;;;;;;;;;;;;;20.95;41.50;102003.86;1942722;74;20421;-49
2023/02/28 10:49:32;;;;;;;;;;;;;;;21.21;41.07;101999.55;1942559;74;20152;-47
2023/02/28 10:52:00;;;;;;;;;;;;;;;21.31;40.88;101997.98;1942688;74;20139;-48
2023/02/28 10:54:38;;;;;;;;;;;;;;;21.27;40.86;102003.66;1942595;74;20116;-49
2023/02/28 10:57:10;;;;;;;;;;;;;;;21.30;40.59;101998.08;1941885;74;20143;-47
2023/02/28 10:59:38;;;;;;;;;;;;;;;21.09;40.58;102003.86;1942164;74;20113;-50
2023/02/28 11:02:07;;;;;;;;;;;;;;;20.95;40.62;102003.86;1942790;74;20154;-49
2023/02/28 11:04:37;;;;;;;;;;;;;;;20.74;40.91;101995.37;1938288;74;20125;-50
2023/02/28 11:07:22;;;;;;;;;;;;;;;20.78;40.86;101992.39;1942782;74;20104;-51
2023/02/28 11:09:51;;;;;;;;;;;;;;;20.74;40.76;101982.84;1942889;74;20113;-48
2023/02/28 11:12:21;;;;;;;;;;;;;;;20.21;41.19;101993.18;1942277;74;20117;-50
2023/02/28 11:14:54;;;;;;;;;;;;;;;20.19;41.34;101994.20;1943089;74;20147;-48
2023/02/28 11:17:26;;;;;;;;;;;;;;;20.34;41.22;101995.95;1943976;74;20109;-48
2023/02/28 11:19:55;;;;;;;;;;;;;;;20.69;40.81;101994.78;1943944;74;20108;-48
2023/02/28 11:22:28;;;;;;;;;;;;;;;20.85;40.63;101997.38;1944051;74;20147;-47
2023/02/28 11:24:57;;;;;;;;;;;;;;;20.57;40.49;101989.70;1944083;74;20109;-47
2023/02/28 11:27:29;;;;;;;;;;;;;;;20.40;40.65;102004.96;1944056;74;20116;-47
2023/02/28 11:29:57;;;;;;;;;;;;;;;20.26;40.90;102011.61;1943942;74;20109;-48
2023/02/28 11:32:28;;;;;;;;;;;;;;;20.14;40.99;102006.98;1947866;73;20124;-47
2023/02/28 11:35:03;;;;;;;;;;;;;;;19.96;40.75;102002.27;1950578;74;20104;-48
2023/02/28 11:37:32;;;;;;;;;;;;;;;19.75;41.44;102011.04;1950594;74;20480;-47
2023/02/28 11:40:00;;;;;;;;;;;;;;;19.69;41.32;102010.89;1950721;74;20116;-49
2023/02/28 11:42:41;;;;;;;;;;;;;;;19.39;41.57;102008.16;1950536;74;20148;-47
2023/02/28 11:45:27;;;;;;;;;;;;;;;19.11;41.72;102003.02;1906442;73;20401;-48
2023/02/28 11:47:59;;;;;;;;;;;;;;;18.57;42.16;102005.85;1950677;74;20116;-49
2023/02/28 11:50:34;;;;;;;;;;;;;;;17.81;42.89;102011.45;1949811;73;20128;-49
2023/02/28 11:53:03;;;;;;;;;;;;;;;17.25;43.59;102013.27;1949694;73;20150;-50
2023/02/28 11:55:39;;;;;;;;;;;;;;;16.87;44.16;102014.55;1950510;73;20194;-47
2023/02/28 11:58:24;;;;;;;;;;;;;;;16.66;44.64;102018.16;1950613;74;20109;-47
2023/02/28 12:01:10;;;;;;;;;;;;;;;16.62;45.21;102017.87;1950587;74;20117;-49
2023/02/28 12:03:41;;;;;;;;;;;;;;;16.47;45.17;102022.95;1950584;74;20147;-48
2023/02/28 12:06:19;;;;;;;;;;;;;;;16.21;45.46;102029.36;1950650;74;20108;-48
2023/02/28 12:08:57;;;;;;;;;;;;;;;16.18;45.39;102035.68;1950688;73;20367;-48
2023/02/28 12:11:32;;;;;;;;;;;;;;;16.28;46.10;102039.27;1950688;74;20116;-50
2023/02/28 12:14:17;;;;;;;;;;;;;;;16.40;45.64;102037.44;1958379;73;20171;-48
2023/02/28 12:16:46;;;;;;;;;;;;;;;16.50;46.16;102040.08;1957883;73;20116;-48
2023/02/28 12:19:15;;;;;;;;;;;;;;;16.48;45.66;102042.41;1958854;73;20433;-52
2023/02/28 12:22:03;;;;;;;;;;;;;;;16.31;45.93;102047.98;1959143;73;20147;-49
2023/02/28 12:24:32;;;;;;;;;;;;;;;16.16;46.28;102049.50;1958863;73;20196;-48
2023/02/28 12:27:01;;;;;;;;;;;;;;;16.12;46.29;102057.20;1959186;73;20116;-50
2023/02/28 12:29:31;;;;;;;;;;;;;;;16.07;46.31;102060.50;1959351;73;20377;-47
2023/02/28 12:32:03;;;;;;;;;;;;;;;16.11;46.31;102054.60;1956430;73;20151;-48
2023/02/28 12:34:32;;;;;;;;;;;;;;;16.02;46.65;102051.38;1942010;74;20144;-48
2023/02/28 12:37:01;;;;;;;;;;;;;;;15.92;47.14;102043.87;1941358;74;20225;-49
2023/02/28 12:39:33;;;;;;;;;;;;;;;15.76;46.90;102049.78;1942529;74;20139;-48
2023/02/28 12:42:02;;;;;;;;;;;;;;;15.73;47.18;102049.01;1936162;74;20156;-48
2023/02/28 12:44:37;;;;;;;;;;;;;;;15.66;47.36;102051.50;1940788;74;20119;-50
2023/02/28 12:47:06;;;;;;;;;;;;;;;15.65;47.17;102049.31;1942514;74;20113;-47
2023/02/28 12:49:35;;;;;;;;;;;;;;;15.66;47.29;102049.73;1942763;74;20348;-49